sensor_id;sensor_type;location;lat;lon;timestamp;P1;durP1;ratioP1;P2;durP2;ratioP2
15383;SDS011;7790;53.022;12.968;2023-11-21T00:02:47;1.60;;;1.50;;
15383;SDS011;7790;53.022;12.968;2023-11-21T00:06:48;1.73;;;1.37;;
15383;SDS011;7790;53.022;12.968;2023-11-21T00:10:49;1.40;;;1.30;;
15383;SDS011;7790;53.022;12.968;2023-11-21T00:14:51;1.50;;;1.40;;
15383;SDS011;7790;53.022;12.968;2023-11-21T00:18:52;1.70;;;1.60;;
15383;SDS011;7790;53.022;12.968;2023-11-21T00:22:54;1.90;;;1.50;;
15383;SDS011;7790;53.022;12.968;2023-11-21T00:26:55;1.63;;;1.53;;
15383;SDS011;7790;53.022;12.968;2023-11-21T00:30:55;1.80;;;1.60;;
15383;SDS011;7790;53.022;12.968;2023-11-21T00:34:56;2.50;;;1.30;;
15383;SDS011;7790;53.022;12.968;2023-11-21T00:38:57;1.90;;;1.50;;
15383;SDS011;7790;53.022;12.968;2023-11-21T00:42:59;1.60;;;1.50;;
15383;SDS011;7790;53.022;12.968;2023-11-21T00:47:00;1.50;;;1.40;;
15383;SDS011;7790;53.022;12.968;2023-11-21T00:51:01;1.60;;;1.50;;
15383;SDS011;7790;53.022;12.968;2023-11-21T00:55:02;2.50;;;1.50;;
15383;SDS011;7790;53.022;12.968;2023-11-21T00:59:04;1.60;;;1.50;;
15383;SDS011;7790;53.022;12.968;2023-11-21T01:03:05;1.77;;;1.60;;
15383;SDS011;7790;53.022;12.968;2023-11-21T01:07:08;2.00;;;1.57;;
15383;SDS011;7790;53.022;12.968;2023-11-21T01:11:10;1.53;;;1.43;;
15383;SDS011;7790;53.022;12.968;2023-11-21T01:15:12;2.30;;;1.60;;
15383;SDS011;7790;53.022;12.968;2023-11-21T01:19:13;1.73;;;1.53;;
15383;SDS011;7790;53.022;12.968;2023-11-21T01:23:14;1.67;;;1.57;;
15383;SDS011;7790;53.022;12.968;2023-11-21T01:27:14;1.80;;;1.70;;
15383;SDS011;7790;53.022;12.968;2023-11-21T01:31:15;1.83;;;1.40;;
15383;SDS011;7790;53.022;12.968;2023-11-21T01:35:16;2.13;;;1.90;;
15383;SDS011;7790;53.022;12.968;2023-11-21T01:39:17;1.70;;;1.60;;
15383;SDS011;7790;53.022;12.968;2023-11-21T01:43:23;1.70;;;1.60;;
15383;SDS011;7790;53.022;12.968;2023-11-21T01:47:24;1.80;;;1.70;;
15383;SDS011;7790;53.022;12.968;2023-11-21T01:51:25;1.90;;;1.70;;
15383;SDS011;7790;53.022;12.968;2023-11-21T01:55:26;1.80;;;1.70;;
15383;SDS011;7790;53.022;12.968;2023-11-21T01:59:30;1.80;;;1.60;;
15383;SDS011;7790;53.022;12.968;2023-11-21T02:03:38;2.07;;;1.70;;
15383;SDS011;7790;53.022;12.968;2023-11-21T02:07:39;1.70;;;1.60;;
15383;SDS011;7790;53.022;12.968;2023-11-21T02:11:41;1.83;;;1.70;;
15383;SDS011;7790;53.022;12.968;2023-11-21T02:15:42;1.83;;;1.73;;
15383;SDS011;7790;53.022;12.968;2023-11-21T02:19:43;1.80;;;1.70;;
15383;SDS011;7790;53.022;12.968;2023-11-21T02:23:45;3.23;;;1.80;;
15383;SDS011;7790;53.022;12.968;2023-11-21T02:27:47;1.90;;;1.80;;
15383;SDS011;7790;53.022;12.968;2023-11-21T02:31:51;2.07;;;1.87;;
15383;SDS011;7790;53.022;12.968;2023-11-21T02:35:55;1.77;;;1.67;;
15383;SDS011;7790;53.022;12.968;2023-11-21T02:39:56;1.83;;;1.73;;
15383;SDS011;7790;53.022;12.968;2023-11-21T02:43:57;2.00;;;1.90;;
15383;SDS011;7790;53.022;12.968;2023-11-21T02:47:58;2.47;;;2.20;;
15383;SDS011;7790;53.022;12.968;2023-11-21T02:51:59;2.10;;;2.00;;
15383;SDS011;7790;53.022;12.968;2023-11-21T02:56:01;2.27;;;2.00;;
15383;SDS011;7790;53.022;12.968;2023-11-21T03:00:02;2.93;;;2.20;;
15383;SDS011;7790;53.022;12.968;2023-11-21T03:04:08;2.30;;;2.10;;
15383;SDS011;7790;53.022;12.968;2023-11-21T03:08:09;2.67;;;2.47;;
15383;SDS011;7790;53.022;12.968;2023-11-21T03:12:10;3.80;;;2.20;;
15383;SDS011;7790;53.022;12.968;2023-11-21T03:16:12;2.10;;;2.00;;
15383;SDS011;7790;53.022;12.968;2023-11-21T03:20:14;2.40;;;2.20;;
15383;SDS011;7790;53.022;12.968;2023-11-21T03:24:16;2.27;;;2.00;;
15383;SDS011;7790;53.022;12.968;2023-11-21T03:28:19;2.77;;;2.10;;
15383;SDS011;7790;53.022;12.968;2023-11-21T03:32:20;2.30;;;2.10;;
15383;SDS011;7790;53.022;12.968;2023-11-21T03:36:21;2.20;;;2.10;;
15383;SDS011;7790;53.022;12.968;2023-11-21T03:40:22;3.17;;;2.00;;
15383;SDS011;7790;53.022;12.968;2023-11-21T03:44:23;2.20;;;2.00;;
15383;SDS011;7790;53.022;12.968;2023-11-21T03:48:23;2.30;;;2.10;;
15383;SDS011;7790;53.022;12.968;2023-11-21T03:52:24;2.40;;;2.20;;
15383;SDS011;7790;53.022;12.968;2023-11-21T03:56:26;2.50;;;2.30;;
15383;SDS011;7790;53.022;12.968;2023-11-21T04:00:27;2.30;;;2.10;;
15383;SDS011;7790;53.022;12.968;2023-11-21T04:04:28;2.50;;;2.30;;
15383;SDS011;7790;53.022;12.968;2023-11-21T04:08:29;3.33;;;2.30;;
15383;SDS011;7790;53.022;12.968;2023-11-21T04:12:30;2.53;;;2.33;;
15383;SDS011;7790;53.022;12.968;2023-11-21T04:16:31;2.30;;;2.10;;
15383;SDS011;7790;53.022;12.968;2023-11-21T04:20:31;2.67;;;2.47;;
15383;SDS011;7790;53.022;12.968;2023-11-21T04:24:32;2.53;;;2.33;;
15383;SDS011;7790;53.022;12.968;2023-11-21T04:28:33;2.43;;;2.23;;
15383;SDS011;7790;53.022;12.968;2023-11-21T04:32:34;2.53;;;2.33;;
15383;SDS011;7790;53.022;12.968;2023-11-21T04:36:36;3.20;;;2.20;;
15383;SDS011;7790;53.022;12.968;2023-11-21T04:40:37;2.47;;;2.27;;
15383;SDS011;7790;53.022;12.968;2023-11-21T04:44:38;2.90;;;2.47;;
15383;SDS011;7790;53.022;12.968;2023-11-21T04:48:41;2.50;;;2.30;;
15383;SDS011;7790;53.022;12.968;2023-11-21T04:52:42;2.77;;;2.47;;
15383;SDS011;7790;53.022;12.968;2023-11-21T04:56:43;3.20;;;2.43;;
15383;SDS011;7790;53.022;12.968;2023-11-21T05:00:43;2.50;;;2.30;;
15383;SDS011;7790;53.022;12.968;2023-11-21T05:04:44;2.63;;;2.40;;
15383;SDS011;7790;53.022;12.968;2023-11-21T05:08:45;3.03;;;2.53;;
15383;SDS011;7790;53.022;12.968;2023-11-21T05:12:46;2.40;;;2.20;;
15383;SDS011;7790;53.022;12.968;2023-11-21T05:16:47;2.13;;;1.93;;
15383;SDS011;7790;53.022;12.968;2023-11-21T05:20:48;2.53;;;2.30;;
15383;SDS011;7790;53.022;12.968;2023-11-21T05:24:49;2.50;;;2.30;;
15383;SDS011;7790;53.022;12.968;2023-11-21T05:28:50;2.20;;;2.00;;
15383;SDS011;7790;53.022;12.968;2023-11-21T05:32:51;2.23;;;2.00;;
15383;SDS011;7790;53.022;12.968;2023-11-21T05:36:52;2.00;;;1.90;;
15383;SDS011;7790;53.022;12.968;2023-11-21T05:40:53;2.87;;;2.20;;
15383;SDS011;7790;53.022;12.968;2023-11-21T05:44:54;2.50;;;1.87;;
15383;SDS011;7790;53.022;12.968;2023-11-21T05:48:55;4.13;;;2.30;;
15383;SDS011;7790;53.022;12.968;2023-11-21T05:52:57;1.90;;;1.80;;
15383;SDS011;7790;53.022;12.968;2023-11-21T05:57:00;2.80;;;2.20;;
15383;SDS011;7790;53.022;12.968;2023-11-21T06:01:01;2.00;;;1.80;;
15383;SDS011;7790;53.022;12.968;2023-11-21T06:05:03;3.47;;;2.23;;
15383;SDS011;7790;53.022;12.968;2023-11-21T06:09:05;1.67;;;1.57;;
15383;SDS011;7790;53.022;12.968;2023-11-21T06:13:09;2.00;;;1.90;;
15383;SDS011;7790;53.022;12.968;2023-11-21T06:17:11;1.93;;;1.80;;
15383;SDS011;7790;53.022;12.968;2023-11-21T06:21:11;2.80;;;1.70;;
15383;SDS011;7790;53.022;12.968;2023-11-21T06:25:13;3.40;;;1.70;;
15383;SDS011;7790;53.022;12.968;2023-11-21T06:29:14;1.60;;;1.50;;
15383;SDS011;7790;53.022;12.968;2023-11-21T06:33:16;2.23;;;2.03;;
15383;SDS011;7790;53.022;12.968;2023-11-21T06:37:17;1.90;;;1.80;;
15383;SDS011;7790;53.022;12.968;2023-11-21T06:41:17;2.87;;;1.67;;
15383;SDS011;7790;53.022;12.968;2023-11-21T06:45:18;1.90;;;1.80;;
15383;SDS011;7790;53.022;12.968;2023-11-21T06:49:20;2.47;;;1.57;;
15383;SDS011;7790;53.022;12.968;2023-11-21T06:53:21;2.23;;;1.63;;
15383;SDS011;7790;53.022;12.968;2023-11-21T06:57:24;1.77;;;1.67;;
15383;SDS011;7790;53.022;12.968;2023-11-21T07:01:25;3.03;;;1.80;;
15383;SDS011;7790;53.022;12.968;2023-11-21T07:05:26;4.60;;;1.70;;
15383;SDS011;7790;53.022;12.968;2023-11-21T07:09:27;2.10;;;1.90;;
15383;SDS011;7790;53.022;12.968;2023-11-21T07:13:27;1.93;;;1.83;;
15383;SDS011;7790;53.022;12.968;2023-11-21T07:17:29;1.70;;;1.60;;
15383;SDS011;7790;53.022;12.968;2023-11-21T07:21:30;2.30;;;1.70;;
15383;SDS011;7790;53.022;12.968;2023-11-21T07:25:31;3.17;;;1.67;;
15383;SDS011;7790;53.022;12.968;2023-11-21T07:29:33;5.80;;;2.23;;
15383;SDS011;7790;53.022;12.968;2023-11-21T07:33:34;10.23;;;2.30;;
15383;SDS011;7790;53.022;12.968;2023-11-21T07:37:36;2.97;;;2.30;;
15383;SDS011;7790;53.022;12.968;2023-11-21T07:41:36;3.93;;;2.17;;
15383;SDS011;7790;53.022;12.968;2023-11-21T07:45:45;4.50;;;1.87;;
15383;SDS011;7790;53.022;12.968;2023-11-21T07:49:45;5.03;;;1.97;;
15383;SDS011;7790;53.022;12.968;2023-11-21T07:53:47;6.27;;;2.50;;
15383;SDS011;7790;53.022;12.968;2023-11-21T07:57:48;5.03;;;2.00;;
15383;SDS011;7790;53.022;12.968;2023-11-21T08:01:49;4.27;;;2.13;;
15383;SDS011;7790;53.022;12.968;2023-11-21T08:05:50;2.27;;;1.90;;
15383;SDS011;7790;53.022;12.968;2023-11-21T08:09:51;5.10;;;2.03;;
15383;SDS011;7790;53.022;12.968;2023-11-21T08:13:52;3.77;;;2.37;;
15383;SDS011;7790;53.022;12.968;2023-11-21T08:17:54;4.00;;;1.97;;
15383;SDS011;7790;53.022;12.968;2023-11-21T08:21:55;3.83;;;2.00;;
15383;SDS011;7790;53.022;12.968;2023-11-21T08:25:56;6.20;;;2.30;;
15383;SDS011;7790;53.022;12.968;2023-11-21T08:29:57;4.27;;;2.17;;
15383;SDS011;7790;53.022;12.968;2023-11-21T08:33:58;2.80;;;2.00;;
15383;SDS011;7790;53.022;12.968;2023-11-21T08:38:03;4.00;;;2.07;;
15383;SDS011;7790;53.022;12.968;2023-11-21T08:42:04;6.23;;;1.90;;
15383;SDS011;7790;53.022;12.968;2023-11-21T08:46:08;3.30;;;1.90;;
15383;SDS011;7790;53.022;12.968;2023-11-21T08:50:09;2.50;;;1.80;;
15383;SDS011;7790;53.022;12.968;2023-11-21T08:54:12;3.40;;;1.93;;
15383;SDS011;7790;53.022;12.968;2023-11-21T08:58:14;6.13;;;1.83;;
15383;SDS011;7790;53.022;12.968;2023-11-21T09:02:16;3.13;;;1.80;;
15383;SDS011;7790;53.022;12.968;2023-11-21T09:06:16;3.80;;;2.00;;
15383;SDS011;7790;53.022;12.968;2023-11-21T09:10:17;2.70;;;2.00;;
15383;SDS011;7790;53.022;12.968;2023-11-21T09:14:19;2.53;;;1.70;;
15383;SDS011;7790;53.022;12.968;2023-11-21T09:18:20;2.43;;;1.93;;
15383;SDS011;7790;53.022;12.968;2023-11-21T09:22:21;2.70;;;1.80;;
15383;SDS011;7790;53.022;12.968;2023-11-21T09:26:22;4.07;;;2.13;;
15383;SDS011;7790;53.022;12.968;2023-11-21T09:30:23;1.87;;;1.77;;
15383;SDS011;7790;53.022;12.968;2023-11-21T09:34:25;3.77;;;2.00;;
15383;SDS011;7790;53.022;12.968;2023-11-21T09:38:26;2.77;;;1.80;;
15383;SDS011;7790;53.022;12.968;2023-11-21T09:42:36;2.20;;;2.00;;
15383;SDS011;7790;53.022;12.968;2023-11-21T09:46:42;2.87;;;1.83;;
15383;SDS011;7790;53.022;12.968;2023-11-21T09:50:43;1.93;;;1.80;;
15383;SDS011;7790;53.022;12.968;2023-11-21T09:54:44;4.67;;;2.20;;
15383;SDS011;7790;53.022;12.968;2023-11-21T09:58:45;2.40;;;2.00;;
15383;SDS011;7790;53.022;12.968;2023-11-21T10:02:46;4.77;;;2.20;;
15383;SDS011;7790;53.022;12.968;2023-11-21T10:06:50;1.90;;;1.70;;
15383;SDS011;7790;53.022;12.968;2023-11-21T10:10:53;2.80;;;1.83;;
15383;SDS011;7790;53.022;12.968;2023-11-21T10:14:54;3.53;;;1.83;;
15383;SDS011;7790;53.022;12.968;2023-11-21T10:18:58;1.93;;;1.60;;
15383;SDS011;7790;53.022;12.968;2023-11-21T10:23:00;3.27;;;1.70;;
15383;SDS011;7790;53.022;12.968;2023-11-21T10:27:04;1.90;;;1.63;;
15383;SDS011;7790;53.022;12.968;2023-11-21T10:31:06;2.47;;;1.70;;
15383;SDS011;7790;53.022;12.968;2023-11-21T10:35:08;2.63;;;1.60;;
15383;SDS011;7790;53.022;12.968;2023-11-21T10:39:19;2.03;;;1.83;;
15383;SDS011;7790;53.022;12.968;2023-11-21T10:43:22;2.30;;;1.80;;
15383;SDS011;7790;53.022;12.968;2023-11-21T10:47:25;2.03;;;1.50;;
15383;SDS011;7790;53.022;12.968;2023-11-21T10:51:27;2.77;;;1.70;;
15383;SDS011;7790;53.022;12.968;2023-11-21T10:55:28;4.03;;;2.00;;
15383;SDS011;7790;53.022;12.968;2023-11-21T10:59:30;1.80;;;1.70;;
15383;SDS011;7790;53.022;12.968;2023-11-21T11:03:31;1.77;;;1.67;;
15383;SDS011;7790;53.022;12.968;2023-11-21T11:07:33;1.60;;;1.50;;
15383;SDS011;7790;53.022;12.968;2023-11-21T11:11:36;1.67;;;1.57;;
15383;SDS011;7790;53.022;12.968;2023-11-21T11:15:39;1.77;;;1.57;;
15383;SDS011;7790;53.022;12.968;2023-11-21T11:19:40;2.10;;;1.60;;
15383;SDS011;7790;53.022;12.968;2023-11-21T11:23:46;1.97;;;1.77;;
15383;SDS011;7790;53.022;12.968;2023-11-21T11:28:15;2.13;;;1.70;;
15383;SDS011;7790;53.022;12.968;2023-11-21T11:36:54;2.03;;;1.83;;
15383;SDS011;7790;53.022;12.968;2023-11-21T11:41:05;2.50;;;1.70;;
15383;SDS011;7790;53.022;12.968;2023-11-21T11:45:19;1.60;;;1.50;;
15383;SDS011;7790;53.022;12.968;2023-11-21T11:49:29;1.50;;;1.40;;
15383;SDS011;7790;53.022;12.968;2023-11-21T11:53:35;2.13;;;1.63;;
15383;SDS011;7790;53.022;12.968;2023-11-21T11:57:38;1.60;;;1.50;;
15383;SDS011;7790;53.022;12.968;2023-11-21T12:01:40;1.63;;;1.53;;
15383;SDS011;7790;53.022;12.968;2023-11-21T12:05:46;1.70;;;1.60;;
15383;SDS011;7790;53.022;12.968;2023-11-21T12:09:49;1.70;;;1.60;;
15383;SDS011;7790;53.022;12.968;2023-11-21T12:13:50;2.13;;;1.40;;
15383;SDS011;7790;53.022;12.968;2023-11-21T12:17:53;2.37;;;1.70;;
15383;SDS011;7790;53.022;12.968;2023-11-21T12:21:54;3.97;;;1.87;;
15383;SDS011;7790;53.022;12.968;2023-11-21T12:25:56;5.77;;;1.87;;
15383;SDS011;7790;53.022;12.968;2023-11-21T12:29:58;7.20;;;1.80;;
15383;SDS011;7790;53.022;12.968;2023-11-21T12:33:59;5.07;;;2.00;;
15383;SDS011;7790;53.022;12.968;2023-11-21T12:38:00;7.13;;;2.03;;
15383;SDS011;7790;53.022;12.968;2023-11-21T12:42:05;3.50;;;1.80;;
15383;SDS011;7790;53.022;12.968;2023-11-21T12:46:07;2.73;;;2.00;;
15383;SDS011;7790;53.022;12.968;2023-11-21T12:50:11;3.57;;;1.70;;
15383;SDS011;7790;53.022;12.968;2023-11-21T12:54:14;3.37;;;2.00;;
15383;SDS011;7790;53.022;12.968;2023-11-21T12:58:15;2.47;;;1.83;;
15383;SDS011;7790;53.022;12.968;2023-11-21T13:02:16;2.00;;;1.50;;
15383;SDS011;7790;53.022;12.968;2023-11-21T13:06:18;2.13;;;1.63;;
15383;SDS011;7790;53.022;12.968;2023-11-21T13:10:22;4.27;;;1.50;;
15383;SDS011;7790;53.022;12.968;2023-11-21T13:14:31;2.63;;;1.50;;
15383;SDS011;7790;53.022;12.968;2023-11-21T13:18:32;3.97;;;1.40;;
15383;SDS011;7790;53.022;12.968;2023-11-21T13:22:33;3.73;;;2.10;;
15383;SDS011;7790;53.022;12.968;2023-11-21T13:26:34;8.47;;;2.20;;
15383;SDS011;7790;53.022;12.968;2023-11-21T13:30:35;4.43;;;1.57;;
15383;SDS011;7790;53.022;12.968;2023-11-21T13:34:35;2.80;;;1.50;;
15383;SDS011;7790;53.022;12.968;2023-11-21T13:38:37;7.23;;;2.10;;
15383;SDS011;7790;53.022;12.968;2023-11-21T13:42:42;3.70;;;1.70;;
15383;SDS011;7790;53.022;12.968;2023-11-21T13:46:43;5.80;;;1.70;;
15383;SDS011;7790;53.022;12.968;2023-11-21T13:50:45;3.00;;;1.70;;
15383;SDS011;7790;53.022;12.968;2023-11-21T13:54:55;3.87;;;1.53;;
15383;SDS011;7790;53.022;12.968;2023-11-21T13:58:56;1.67;;;1.53;;
15383;SDS011;7790;53.022;12.968;2023-11-21T14:03:04;2.30;;;2.20;;
15383;SDS011;7790;53.022;12.968;2023-11-21T14:07:09;3.13;;;2.27;;
15383;SDS011;7790;53.022;12.968;2023-11-21T14:11:28;2.53;;;2.20;;
15383;SDS011;7790;53.022;12.968;2023-11-21T14:15:29;3.20;;;2.43;;
15383;SDS011;7790;53.022;12.968;2023-11-21T14:19:31;4.43;;;2.93;;
15383;SDS011;7790;53.022;12.968;2023-11-21T14:23:33;3.20;;;2.20;;
15383;SDS011;7790;53.022;12.968;2023-11-21T14:27:36;2.70;;;2.07;;
15383;SDS011;7790;53.022;12.968;2023-11-21T14:31:37;2.07;;;1.90;;
15383;SDS011;7790;53.022;12.968;2023-11-21T14:35:37;1.97;;;1.63;;
15383;SDS011;7790;53.022;12.968;2023-11-21T14:39:38;1.77;;;1.60;;
15383;SDS011;7790;53.022;12.968;2023-11-21T14:43:44;4.37;;;1.90;;
15383;SDS011;7790;53.022;12.968;2023-11-21T14:47:47;1.73;;;1.63;;
15383;SDS011;7790;53.022;12.968;2023-11-21T14:52:05;2.40;;;1.40;;
15383;SDS011;7790;53.022;12.968;2023-11-21T14:56:29;1.47;;;1.37;;
15383;SDS011;7790;53.022;12.968;2023-11-21T15:00:32;1.50;;;1.40;;
15383;SDS011;7790;53.022;12.968;2023-11-21T15:04:44;1.40;;;1.30;;
15383;SDS011;7790;53.022;12.968;2023-11-21T15:08:51;1.40;;;1.30;;
15383;SDS011;7790;53.022;12.968;2023-11-21T15:12:59;1.40;;;1.30;;
15383;SDS011;7790;53.022;12.968;2023-11-21T15:17:00;1.33;;;1.23;;
15383;SDS011;7790;53.022;12.968;2023-11-21T15:21:02;1.17;;;1.17;;
15383;SDS011;7790;53.022;12.968;2023-11-21T15:25:04;1.80;;;1.23;;
15383;SDS011;7790;53.022;12.968;2023-11-21T15:29:10;1.33;;;1.30;;
15383;SDS011;7790;53.022;12.968;2023-11-21T15:33:11;1.47;;;1.37;;
15383;SDS011;7790;53.022;12.968;2023-11-21T15:37:12;1.70;;;1.60;;
15383;SDS011;7790;53.022;12.968;2023-11-21T15:41:13;1.80;;;1.70;;
15383;SDS011;7790;53.022;12.968;2023-11-21T15:45:14;1.63;;;1.17;;
15383;SDS011;7790;53.022;12.968;2023-11-21T15:49:18;1.40;;;1.30;;
15383;SDS011;7790;53.022;12.968;2023-11-21T15:53:22;1.30;;;1.20;;
15383;SDS011;7790;53.022;12.968;2023-11-21T15:57:23;1.27;;;1.23;;
15383;SDS011;7790;53.022;12.968;2023-11-21T16:01:24;2.43;;;1.40;;
15383;SDS011;7790;53.022;12.968;2023-11-21T16:05:26;1.07;;;1.07;;
15383;SDS011;7790;53.022;12.968;2023-11-21T16:09:27;1.53;;;1.00;;
15383;SDS011;7790;53.022;12.968;2023-11-21T16:13:31;1.17;;;1.07;;
15383;SDS011;7790;53.022;12.968;2023-11-21T16:17:32;1.30;;;1.20;;
15383;SDS011;7790;53.022;12.968;2023-11-21T16:21:34;1.33;;;1.20;;
15383;SDS011;7790;53.022;12.968;2023-11-21T16:25:34;1.00;;;1.00;;
15383;SDS011;7790;53.022;12.968;2023-11-21T16:29:36;4.13;;;1.23;;
15383;SDS011;7790;53.022;12.968;2023-11-21T16:33:38;2.73;;;2.53;;
15383;SDS011;7790;53.022;12.968;2023-11-21T16:37:39;2.70;;;2.50;;
15383;SDS011;7790;53.022;12.968;2023-11-21T16:41:40;3.17;;;2.93;;
15383;SDS011;7790;53.022;12.968;2023-11-21T16:45:41;3.87;;;2.00;;
15383;SDS011;7790;53.022;12.968;2023-11-21T16:49:48;3.10;;;2.37;;
15383;SDS011;7790;53.022;12.968;2023-11-21T16:53:49;2.50;;;2.30;;
15383;SDS011;7790;53.022;12.968;2023-11-21T16:57:50;2.77;;;2.13;;
15383;SDS011;7790;53.022;12.968;2023-11-21T17:01:52;2.53;;;2.10;;
15383;SDS011;7790;53.022;12.968;2023-11-21T17:05:52;4.20;;;2.20;;
15383;SDS011;7790;53.022;12.968;2023-11-21T17:09:53;6.97;;;2.23;;
15383;SDS011;7790;53.022;12.968;2023-11-21T17:13:54;4.07;;;2.00;;
15383;SDS011;7790;53.022;12.968;2023-11-21T17:17:56;8.20;;;1.83;;
15383;SDS011;7790;53.022;12.968;2023-11-21T17:21:58;4.73;;;2.00;;
15383;SDS011;7790;53.022;12.968;2023-11-21T17:25:59;2.53;;;2.20;;
15383;SDS011;7790;53.022;12.968;2023-11-21T17:30:00;3.13;;;1.87;;
15383;SDS011;7790;53.022;12.968;2023-11-21T17:34:01;6.03;;;1.87;;
15383;SDS011;7790;53.022;12.968;2023-11-21T17:38:02;8.37;;;1.80;;
15383;SDS011;7790;53.022;12.968;2023-11-21T17:42:03;4.40;;;1.50;;
15383;SDS011;7790;53.022;12.968;2023-11-21T17:46:04;1.60;;;1.50;;
15383;SDS011;7790;53.022;12.968;2023-11-21T17:50:05;3.30;;;1.73;;
15383;SDS011;7790;53.022;12.968;2023-11-21T17:54:06;1.83;;;1.73;;
15383;SDS011;7790;53.022;12.968;2023-11-21T17:58:08;3.47;;;1.77;;
15383;SDS011;7790;53.022;12.968;2023-11-21T18:02:09;1.60;;;1.50;;
15383;SDS011;7790;53.022;12.968;2023-11-21T18:06:10;2.37;;;1.60;;
15383;SDS011;7790;53.022;12.968;2023-11-21T18:10:13;2.70;;;1.70;;
15383;SDS011;7790;53.022;12.968;2023-11-21T18:14:14;5.53;;;1.63;;
15383;SDS011;7790;53.022;12.968;2023-11-21T18:18:14;1.93;;;1.53;;
15383;SDS011;7790;53.022;12.968;2023-11-21T18:22:15;8.13;;;1.53;;
15383;SDS011;7790;53.022;12.968;2023-11-21T18:26:16;2.07;;;1.50;;
15383;SDS011;7790;53.022;12.968;2023-11-21T18:30:17;1.73;;;1.50;;
15383;SDS011;7790;53.022;12.968;2023-11-21T18:34:18;3.40;;;1.53;;
15383;SDS011;7790;53.022;12.968;2023-11-21T18:38:19;2.17;;;1.40;;
15383;SDS011;7790;53.022;12.968;2023-11-21T18:42:20;3.77;;;1.43;;
15383;SDS011;7790;53.022;12.968;2023-11-21T18:46:22;5.27;;;1.40;;
15383;SDS011;7790;53.022;12.968;2023-11-21T18:50:22;1.93;;;1.13;;
15383;SDS011;7790;53.022;12.968;2023-11-21T18:54:23;8.03;;;1.83;;
15383;SDS011;7790;53.022;12.968;2023-11-21T18:58:24;3.03;;;1.60;;
15383;SDS011;7790;53.022;12.968;2023-11-21T19:02:25;2.50;;;1.50;;
15383;SDS011;7790;53.022;12.968;2023-11-21T19:06:26;3.53;;;1.27;;
15383;SDS011;7790;53.022;12.968;2023-11-21T19:10:27;3.50;;;1.67;;
15383;SDS011;7790;53.022;12.968;2023-11-21T19:14:29;2.90;;;1.73;;
15383;SDS011;7790;53.022;12.968;2023-11-21T19:18:31;3.30;;;1.70;;
15383;SDS011;7790;53.022;12.968;2023-11-21T19:22:32;3.90;;;2.40;;
15383;SDS011;7790;53.022;12.968;2023-11-21T19:26:36;5.30;;;2.17;;
15383;SDS011;7790;53.022;12.968;2023-11-21T19:30:40;3.27;;;1.93;;
15383;SDS011;7790;53.022;12.968;2023-11-21T19:34:42;5.23;;;2.10;;
15383;SDS011;7790;53.022;12.968;2023-11-21T19:38:44;2.17;;;1.83;;
15383;SDS011;7790;53.022;12.968;2023-11-21T19:42:45;3.23;;;1.97;;
15383;SDS011;7790;53.022;12.968;2023-11-21T19:46:46;2.77;;;1.90;;
15383;SDS011;7790;53.022;12.968;2023-11-21T19:50:47;2.30;;;1.80;;
15383;SDS011;7790;53.022;12.968;2023-11-21T19:54:48;2.20;;;1.60;;
15383;SDS011;7790;53.022;12.968;2023-11-21T19:58:49;5.53;;;1.70;;
15383;SDS011;7790;53.022;12.968;2023-11-21T20:02:52;2.63;;;1.43;;
15383;SDS011;7790;53.022;12.968;2023-11-21T20:06:53;1.63;;;1.40;;
15383;SDS011;7790;53.022;12.968;2023-11-21T20:10:57;1.50;;;1.40;;
15383;SDS011;7790;53.022;12.968;2023-11-21T20:14:58;5.70;;;1.40;;
15383;SDS011;7790;53.022;12.968;2023-11-21T20:18:59;3.70;;;1.30;;
15383;SDS011;7790;53.022;12.968;2023-11-21T20:22:59;1.83;;;1.40;;
15383;SDS011;7790;53.022;12.968;2023-11-21T20:27:01;3.87;;;1.30;;
15383;SDS011;7790;53.022;12.968;2023-11-21T20:31:03;3.53;;;1.43;;
15383;SDS011;7790;53.022;12.968;2023-11-21T20:35:05;2.00;;;1.50;;
15383;SDS011;7790;53.022;12.968;2023-11-21T20:39:07;1.43;;;1.20;;
15383;SDS011;7790;53.022;12.968;2023-11-21T20:43:08;1.30;;;1.20;;
15383;SDS011;7790;53.022;12.968;2023-11-21T20:47:09;2.03;;;1.07;;
15383;SDS011;7790;53.022;12.968;2023-11-21T20:51:11;4.07;;;1.20;;
15383;SDS011;7790;53.022;12.968;2023-11-21T20:55:12;3.53;;;1.40;;
15383;SDS011;7790;53.022;12.968;2023-11-21T20:59:13;1.40;;;1.27;;
15383;SDS011;7790;53.022;12.968;2023-11-21T21:03:14;1.83;;;1.40;;
15383;SDS011;7790;53.022;12.968;2023-11-21T21:07:15;1.37;;;1.23;;
15383;SDS011;7790;53.022;12.968;2023-11-21T21:11:17;3.23;;;1.33;;
15383;SDS011;7790;53.022;12.968;2023-11-21T21:15:22;1.30;;;1.20;;
15383;SDS011;7790;53.022;12.968;2023-11-21T21:19:24;1.47;;;1.30;;
15383;SDS011;7790;53.022;12.968;2023-11-21T21:23:27;1.40;;;1.17;;
15383;SDS011;7790;53.022;12.968;2023-11-21T21:27:29;2.47;;;1.10;;
15383;SDS011;7790;53.022;12.968;2023-11-21T21:31:29;2.90;;;1.33;;
15383;SDS011;7790;53.022;12.968;2023-11-21T21:35:32;2.23;;;1.30;;
15383;SDS011;7790;53.022;12.968;2023-11-21T21:39:33;1.07;;;0.93;;
15383;SDS011;7790;53.022;12.968;2023-11-21T21:43:34;1.60;;;1.20;;
15383;SDS011;7790;53.022;12.968;2023-11-21T21:47:35;4.27;;;1.13;;
15383;SDS011;7790;53.022;12.968;2023-11-21T21:51:36;2.73;;;1.23;;
15383;SDS011;7790;53.022;12.968;2023-11-21T21:55:37;1.40;;;1.30;;
15383;SDS011;7790;53.022;12.968;2023-11-21T21:59:41;1.40;;;0.93;;
15383;SDS011;7790;53.022;12.968;2023-11-21T22:03:42;1.30;;;1.20;;
15383;SDS011;7790;53.022;12.968;2023-11-21T22:07:43;1.50;;;1.10;;
15383;SDS011;7790;53.022;12.968;2023-11-21T22:11:44;4.00;;;1.37;;
15383;SDS011;7790;53.022;12.968;2023-11-21T22:15:45;2.50;;;1.07;;
15383;SDS011;7790;53.022;12.968;2023-11-21T22:19:46;2.27;;;0.93;;
15383;SDS011;7790;53.022;12.968;2023-11-21T22:23:47;1.47;;;1.20;;
15383;SDS011;7790;53.022;12.968;2023-11-21T22:27:48;2.20;;;1.00;;
15383;SDS011;7790;53.022;12.968;2023-11-21T22:31:49;1.60;;;1.00;;
15383;SDS011;7790;53.022;12.968;2023-11-21T22:35:50;1.00;;;0.90;;
15383;SDS011;7790;53.022;12.968;2023-11-21T22:39:51;1.07;;;1.00;;
15383;SDS011;7790;53.022;12.968;2023-11-21T22:43:53;1.00;;;0.90;;
15383;SDS011;7790;53.022;12.968;2023-11-21T22:47:54;1.40;;;1.00;;
15383;SDS011;7790;53.022;12.968;2023-11-21T22:51:55;0.90;;;0.80;;
15383;SDS011;7790;53.022;12.968;2023-11-21T22:55:57;1.07;;;0.77;;
15383;SDS011;7790;53.022;12.968;2023-11-21T22:59:57;1.00;;;0.90;;
15383;SDS011;7790;53.022;12.968;2023-11-21T23:03:58;1.20;;;1.00;;
15383;SDS011;7790;53.022;12.968;2023-11-21T23:07:59;1.07;;;0.83;;
15383;SDS011;7790;53.022;12.968;2023-11-21T23:12:00;1.00;;;0.80;;
15383;SDS011;7790;53.022;12.968;2023-11-21T23:16:01;1.83;;;1.00;;
15383;SDS011;7790;53.022;12.968;2023-11-21T23:20:02;1.00;;;1.00;;
15383;SDS011;7790;53.022;12.968;2023-11-21T23:24:09;2.90;;;1.07;;
15383;SDS011;7790;53.022;12.968;2023-11-21T23:28:11;2.60;;;0.93;;
15383;SDS011;7790;53.022;12.968;2023-11-21T23:32:12;0.90;;;0.90;;
15383;SDS011;7790;53.022;12.968;2023-11-21T23:36:13;0.90;;;0.90;;
15383;SDS011;7790;53.022;12.968;2023-11-21T23:40:17;1.40;;;1.10;;
15383;SDS011;7790;53.022;12.968;2023-11-21T23:44:17;1.07;;;0.97;;
15383;SDS011;7790;53.022;12.968;2023-11-21T23:48:19;1.00;;;1.00;;
15383;SDS011;7790;53.022;12.968;2023-11-21T23:52:20;0.90;;;0.90;;
15383;SDS011;7790;53.022;12.968;2023-11-21T23:56:22;1.17;;;1.07;;
